createdAt,value
2018-02-10T00:00:05.731Z,2.54
2018-02-10T00:01:05.680Z,2.40
2018-02-10T00:02:05.638Z,2.50
2018-02-10T00:03:05.584Z,2.54
2018-02-10T00:04:05.535Z,2.40
2018-02-10T00:05:05.486Z,2.54
2018-02-10T00:06:05.437Z,2.52
2018-02-10T00:07:05.387Z,2.37
2018-02-10T00:08:05.353Z,2.46
2018-02-10T00:09:05.288Z,2.44
2018-02-10T00:10:05.236Z,2.55
2018-02-10T00:11:05.191Z,2.50
2018-02-10T00:12:05.159Z,2.51
2018-02-10T00:13:05.089Z,2.50
2018-02-10T00:14:05.040Z,2.50
2018-02-10T00:15:04.993Z,2.44
2018-02-10T00:16:04.973Z,2.54
2018-02-10T00:17:04.894Z,2.57
2018-02-10T00:18:04.844Z,2.51
2018-02-10T00:19:04.795Z,2.47
2018-02-10T00:20:04.750Z,2.44
2018-02-10T00:21:04.698Z,2.43
2018-02-10T00:22:04.649Z,2.51
2018-02-10T00:23:04.597Z,2.39
2018-02-10T00:24:04.549Z,2.51
2018-02-10T00:25:04.513Z,2.50
2018-02-10T00:26:04.454Z,2.44
2018-02-10T00:27:04.413Z,2.51
2018-02-10T00:28:04.354Z,2.41
2018-02-10T00:29:04.307Z,2.55
2018-02-10T00:30:04.252Z,2.44
2018-02-10T00:31:04.206Z,2.46
2018-02-10T00:32:04.157Z,2.50
2018-02-10T00:33:04.106Z,2.46
2018-02-10T00:34:04.057Z,2.44
2018-02-10T00:35:04.007Z,2.43
2018-02-10T00:36:03.961Z,2.51
2018-02-10T00:37:03.909Z,2.41
2018-02-10T00:38:03.891Z,2.50
2018-02-10T00:39:03.811Z,2.41
2018-02-10T00:40:03.761Z,2.50
2018-02-10T00:41:03.711Z,2.47
2018-02-10T00:42:03.662Z,2.43
2018-02-10T00:43:03.619Z,2.40
2018-02-10T00:44:03.564Z,2.39
2018-02-10T00:45:03.520Z,2.40
2018-02-10T00:46:03.466Z,2.40
2018-02-10T00:47:03.417Z,2.41
2018-02-10T00:48:03.371Z,2.41
2018-02-10T00:49:03.323Z,2.50
2018-02-10T00:50:03.270Z,2.41
2018-02-10T00:51:03.229Z,2.47
2018-02-10T00:52:03.172Z,2.44
2018-02-10T00:53:03.123Z,2.46
2018-02-10T00:54:03.076Z,2.36
2018-02-10T00:55:03.037Z,2.37
2018-02-10T00:56:02.974Z,2.36
2018-02-10T00:57:02.927Z,2.39
2018-02-10T00:58:02.876Z,2.37
2018-02-10T00:59:02.826Z,2.32
2018-02-10T01:00:02.776Z,2.41
2018-02-10T01:01:02.780Z,2.40
2018-02-10T01:02:02.680Z,2.40
2018-02-10T01:03:02.628Z,2.39
2018-02-10T01:04:02.581Z,2.43
2018-02-10T01:05:02.533Z,2.40
2018-02-10T01:06:02.483Z,2.37
2018-02-10T01:07:02.434Z,2.39
2018-02-10T01:08:02.391Z,2.33
2018-02-10T01:09:02.337Z,2.30
2018-02-10T01:10:02.286Z,2.36
2018-02-10T01:11:02.254Z,2.28
2018-02-10T01:12:02.188Z,2.34
2018-02-10T01:13:02.138Z,2.37
2018-02-10T01:14:02.089Z,2.40
2018-02-10T01:15:02.044Z,2.43
2018-02-10T01:16:01.991Z,2.36
2018-02-10T01:17:01.943Z,2.43
2018-02-10T01:18:01.892Z,2.32
2018-02-10T01:19:01.841Z,2.40
2018-02-10T01:20:01.796Z,2.37
2018-02-10T01:21:01.743Z,2.41
2018-02-10T01:22:01.696Z,2.33
2018-02-10T01:23:01.647Z,2.41
2018-02-10T01:24:01.598Z,2.33
2018-02-10T01:25:01.549Z,2.34
2018-02-10T01:26:01.496Z,2.40
2018-02-10T01:27:01.462Z,2.39
2018-02-10T01:28:01.400Z,2.40
2018-02-10T01:29:01.356Z,2.37
2018-02-10T01:30:01.314Z,2.32
2018-02-10T01:31:01.265Z,2.26
2018-02-10T01:32:01.207Z,2.30
2018-02-10T01:33:01.156Z,2.30
2018-02-10T01:34:01.103Z,2.30
2018-02-10T01:35:01.058Z,2.37
2018-02-10T01:36:01.004Z,2.37
2018-02-10T01:37:00.958Z,2.26
2018-02-10T01:38:00.906Z,2.26
2018-02-10T01:39:00.858Z,2.32
2018-02-10T01:40:00.807Z,2.30
2018-02-10T01:41:00.761Z,2.30
2018-02-10T01:42:00.707Z,2.26
2018-02-10T01:43:00.661Z,2.25
2018-02-10T01:44:00.609Z,2.25
2018-02-10T01:45:00.564Z,2.26
2018-02-10T01:46:00.515Z,2.30
2018-02-10T01:47:00.462Z,2.30
2018-02-10T01:48:00.419Z,2.39
2018-02-10T01:49:00.364Z,2.25
2018-02-10T01:50:00.315Z,2.39
2018-02-10T01:51:00.294Z,2.41
2018-02-10T01:52:00.221Z,2.41
2018-02-10T01:53:00.170Z,2.39
2018-02-10T01:54:00.120Z,2.36
2018-02-10T01:55:00.069Z,2.40
2018-02-10T01:56:00.023Z,2.36
2018-02-10T01:56:59.974Z,2.40
2018-02-10T01:57:59.920Z,2.43
2018-02-10T01:58:59.871Z,2.40
2018-02-10T01:59:59.822Z,2.40
2018-02-10T02:00:59.773Z,2.36
2018-02-10T02:01:59.730Z,2.43
2018-02-10T02:02:59.675Z,2.40
2018-02-10T02:03:59.626Z,2.36
2018-02-10T02:04:59.578Z,2.41
2018-02-10T02:05:59.529Z,2.32
2018-02-10T02:06:59.482Z,2.36
2018-02-10T02:07:59.430Z,2.34
2018-02-10T02:08:59.383Z,2.44
2018-02-10T02:09:59.332Z,2.39
2018-02-10T02:10:59.298Z,2.47
2018-02-10T02:11:59.240Z,2.39
2018-02-10T02:12:59.221Z,2.40
2018-02-10T02:13:59.134Z,2.39
2018-02-10T02:14:59.087Z,2.39
2018-02-10T02:15:59.038Z,2.37
2018-02-10T02:16:58.986Z,2.47
2018-02-10T02:17:58.943Z,2.47
2018-02-10T02:18:58.890Z,2.46
2018-02-10T02:19:58.838Z,2.40
2018-02-10T02:20:58.789Z,2.40
2018-02-10T02:21:58.747Z,2.46
2018-02-10T02:22:58.692Z,2.36
2018-02-10T02:23:58.649Z,2.47
2018-02-10T02:24:58.594Z,2.32
2018-02-10T02:25:58.543Z,2.37
2018-02-10T02:26:58.492Z,2.41
2018-02-10T02:27:58.449Z,2.25
2018-02-10T02:28:58.399Z,2.39
2018-02-10T02:29:58.347Z,2.28
2018-02-10T02:30:58.296Z,2.26
2018-02-10T02:31:58.250Z,2.23
2018-02-10T02:32:58.197Z,2.23
2018-02-10T02:33:58.150Z,2.21
2018-02-10T02:34:58.101Z,2.19
2018-02-10T02:35:58.053Z,2.26
2018-02-10T02:36:58.002Z,2.22
2018-02-10T02:37:57.956Z,2.21
2018-02-10T02:38:57.903Z,2.21
2018-02-10T02:39:57.862Z,2.21
2018-02-10T02:40:57.808Z,2.28
2018-02-10T02:41:57.754Z,2.19
2018-02-10T02:42:57.728Z,2.28
2018-02-10T02:43:57.662Z,2.25
2018-02-10T02:44:57.610Z,2.25
2018-02-10T02:45:58.151Z,2.26
2018-02-10T02:46:57.510Z,2.23
2018-02-10T02:47:57.461Z,2.18
2018-02-10T02:48:57.414Z,2.19
2018-02-10T02:49:57.362Z,2.18
2018-02-10T02:50:57.331Z,2.21
2018-02-10T02:51:57.271Z,2.25
2018-02-10T02:52:57.215Z,2.23
2018-02-10T02:53:57.163Z,2.21
2018-02-10T02:54:57.117Z,2.25
2018-02-10T02:55:57.073Z,2.21
2018-02-10T02:56:57.073Z,2.25
2018-02-10T02:57:56.970Z,2.21
2018-02-10T02:58:56.917Z,2.21
2018-02-10T02:59:56.868Z,2.22
2018-02-10T03:00:56.820Z,2.21
2018-02-10T03:01:56.775Z,2.22
2018-02-10T03:02:56.723Z,2.22
2018-02-10T03:03:56.671Z,2.23
2018-02-10T03:04:56.626Z,2.23
2018-02-10T03:05:56.575Z,2.23
2018-02-10T03:06:56.523Z,2.23
2018-02-10T03:07:56.476Z,2.25
2018-02-10T03:08:56.432Z,2.23
2018-02-10T03:09:56.379Z,2.23
2018-02-10T03:10:56.326Z,2.26
2018-02-10T03:11:56.289Z,2.15
2018-02-10T03:12:56.246Z,2.25
2018-02-10T03:13:56.178Z,2.21
2018-02-10T03:14:56.128Z,2.15
2018-02-10T03:15:56.080Z,2.21
2018-02-10T03:16:56.030Z,2.23
2018-02-10T03:17:55.981Z,2.18
2018-02-10T03:18:55.935Z,2.18
2018-02-10T03:19:55.887Z,2.19
2018-02-10T03:20:55.834Z,2.23
2018-02-10T03:21:55.785Z,2.18
2018-02-10T03:22:55.736Z,2.23
2018-02-10T03:23:55.685Z,2.25
2018-02-10T03:24:55.636Z,2.23
2018-02-10T03:25:55.584Z,2.23
2018-02-10T03:26:55.540Z,2.28
2018-02-10T03:27:55.488Z,2.32
2018-02-10T03:28:55.441Z,2.26
2018-02-10T03:29:55.388Z,2.26
2018-02-10T03:30:55.343Z,2.22
2018-02-10T03:31:55.292Z,2.28
2018-02-10T03:32:55.244Z,2.30
2018-02-10T03:33:55.192Z,2.22
2018-02-10T03:34:55.144Z,2.33
2018-02-10T03:35:55.098Z,2.23
2018-02-10T03:36:55.051Z,2.28
2018-02-10T03:37:54.996Z,2.28
2018-02-10T03:38:54.949Z,2.25
2018-02-10T03:39:54.898Z,2.33
2018-02-10T03:40:54.847Z,2.34
2018-02-10T03:41:54.801Z,2.33
2018-02-10T03:42:54.748Z,2.26
2018-02-10T03:43:54.702Z,2.28
2018-02-10T03:44:54.652Z,2.36
2018-02-10T03:45:54.620Z,2.26
2018-02-10T03:46:54.553Z,2.28
2018-02-10T03:47:54.503Z,2.30
2018-02-10T03:48:54.452Z,2.33
2018-02-10T03:49:54.407Z,2.32
2018-02-10T03:50:54.354Z,2.32
2018-02-10T03:51:54.307Z,2.36
2018-02-10T03:52:54.259Z,2.39
2018-02-10T03:53:54.209Z,2.40
2018-02-10T03:54:54.160Z,2.43
2018-02-10T03:55:54.111Z,2.37
2018-02-10T03:56:54.065Z,2.41
2018-02-10T03:57:54.011Z,2.36
2018-02-10T03:58:53.961Z,2.54
2018-02-10T03:59:53.914Z,2.47
2018-02-10T04:00:53.869Z,2.52
2018-02-10T04:01:53.816Z,2.52
2018-02-10T04:02:53.772Z,2.57
2018-02-10T04:03:53.720Z,2.58
2018-02-10T04:04:53.668Z,2.57
2018-02-10T04:05:53.620Z,2.64
2018-02-10T04:06:53.573Z,2.57
2018-02-10T04:07:53.522Z,2.64
2018-02-10T04:08:53.476Z,2.58
2018-02-10T04:09:53.425Z,2.61
2018-02-10T04:10:53.375Z,2.61
2018-02-10T04:11:53.328Z,2.54
2018-02-10T04:12:53.279Z,2.55
2018-02-10T04:13:53.231Z,2.57
2018-02-10T04:14:53.182Z,2.70
2018-02-10T04:15:53.133Z,2.57
2018-02-10T04:16:53.079Z,2.62
2018-02-10T04:17:53.033Z,2.73
2018-02-10T04:18:52.982Z,2.61
2018-02-10T04:19:52.939Z,2.72
2018-02-10T04:20:52.894Z,2.65
2018-02-10T04:21:52.836Z,2.68
2018-02-10T04:22:52.790Z,2.65
2018-02-10T04:23:52.738Z,2.69
2018-02-10T04:24:52.691Z,2.77
2018-02-10T04:25:52.639Z,2.64
2018-02-10T04:26:52.591Z,2.68
2018-02-10T04:27:52.543Z,2.73
2018-02-10T04:28:52.498Z,2.69
2018-02-10T04:29:52.443Z,2.75
2018-02-10T04:30:52.400Z,2.65
2018-02-10T04:31:52.348Z,2.69
2018-02-10T04:32:52.303Z,2.79
2018-02-10T04:33:52.251Z,2.73
2018-02-10T04:34:52.201Z,2.73
2018-02-10T04:35:52.154Z,2.73
2018-02-10T04:36:52.107Z,2.75
2018-02-10T04:37:52.056Z,2.72
2018-02-10T04:38:52.004Z,2.72
2018-02-10T04:39:51.955Z,2.79
2018-02-10T04:40:51.910Z,2.76
2018-02-10T04:41:51.857Z,2.72
2018-02-10T04:42:51.816Z,2.77
2018-02-10T04:43:51.760Z,2.70
2018-02-10T04:44:51.712Z,2.73
2018-02-10T04:45:51.662Z,2.79
2018-02-10T04:46:51.616Z,2.75
2018-02-10T04:47:51.567Z,2.69
2018-02-10T04:48:51.524Z,2.69
2018-02-10T04:49:51.468Z,2.72
2018-02-10T04:50:51.424Z,2.68
2018-02-10T04:51:51.368Z,2.64
2018-02-10T04:52:51.322Z,2.69
2018-02-10T04:53:51.273Z,2.68
2018-02-10T04:54:51.225Z,2.69
2018-02-10T04:55:51.173Z,2.73
2018-02-10T04:56:51.140Z,2.73
2018-02-10T04:57:51.074Z,2.76
2018-02-10T04:58:51.025Z,2.75
2018-02-10T04:59:50.977Z,2.76
2018-02-10T05:00:50.937Z,2.77
2018-02-10T05:01:50.881Z,2.77
2018-02-10T05:02:50.830Z,2.72
2018-02-10T05:03:50.787Z,2.73
2018-02-10T05:04:50.732Z,2.79
2018-02-10T05:05:50.684Z,2.77
2018-02-10T05:06:50.638Z,2.80
2018-02-10T05:07:50.586Z,2.76
2018-02-10T05:08:50.540Z,2.73
2018-02-10T05:09:50.489Z,2.73
2018-02-10T05:10:50.441Z,2.75
2018-02-10T05:11:50.394Z,2.69
2018-02-10T05:12:50.341Z,2.77
2018-02-10T05:13:50.293Z,2.79
2018-02-10T05:14:50.248Z,2.76
2018-02-10T05:15:50.195Z,2.77
2018-02-10T05:16:50.152Z,2.79
2018-02-10T05:17:50.100Z,2.77
2018-02-10T05:18:50.050Z,2.73
2018-02-10T05:19:50.004Z,2.80
2018-02-10T05:20:49.950Z,2.79
2018-02-10T05:21:49.903Z,2.69
2018-02-10T05:22:49.853Z,2.77
2018-02-10T05:23:49.808Z,2.64
2018-02-10T05:24:49.758Z,2.69
2018-02-10T05:25:49.706Z,2.70
2018-02-10T05:26:49.658Z,2.73
2018-02-10T05:27:49.615Z,2.61
2018-02-10T05:28:49.560Z,2.72
2018-02-10T05:29:49.510Z,2.68
2018-02-10T05:30:49.460Z,2.68
2018-02-10T05:31:49.415Z,2.64
2018-02-10T05:32:49.364Z,2.68
2018-02-10T05:33:49.316Z,2.73
2018-02-10T05:34:49.268Z,2.69
2018-02-10T05:35:49.224Z,2.69
2018-02-10T05:36:49.185Z,2.69
2018-02-10T05:37:49.132Z,2.70
2018-02-10T05:38:49.076Z,2.65
2018-02-10T05:39:49.045Z,2.65
2018-02-10T05:40:48.973Z,2.69
2018-02-10T05:41:48.925Z,2.69
2018-02-10T05:42:48.876Z,2.70
2018-02-10T05:43:48.828Z,2.69
2018-02-10T05:44:48.778Z,2.77
2018-02-10T05:45:48.727Z,2.72
2018-02-10T05:46:48.682Z,2.73
2018-02-10T05:47:48.633Z,2.73
2018-02-10T05:48:48.585Z,2.75
2018-02-10T05:49:48.539Z,2.76
2018-02-10T05:50:48.487Z,2.73
2018-02-10T05:51:48.441Z,2.76
2018-02-10T05:52:48.386Z,2.73
2018-02-10T05:53:48.338Z,2.75
2018-02-10T05:54:48.289Z,2.72
2018-02-10T05:55:48.245Z,2.80
2018-02-10T05:56:48.189Z,2.77
2018-02-10T05:57:48.141Z,2.73
2018-02-10T05:58:48.095Z,2.77
2018-02-10T05:59:48.046Z,2.75
2018-02-10T06:00:47.999Z,2.77
2018-02-10T06:01:47.950Z,2.72
2018-02-10T06:02:47.897Z,2.73
2018-02-10T06:03:47.854Z,2.75
2018-02-10T06:04:47.797Z,2.83
2018-02-10T06:05:47.752Z,2.79
2018-02-10T06:06:47.701Z,2.82
2018-02-10T06:07:47.657Z,2.77
2018-02-10T06:08:47.603Z,2.79
2018-02-10T06:09:47.558Z,2.83
2018-02-10T06:10:47.557Z,2.77
2018-02-10T06:11:47.458Z,2.88
2018-02-10T06:12:47.408Z,2.82
2018-02-10T06:13:47.360Z,2.87
2018-02-10T06:14:47.314Z,2.87
2018-02-10T06:15:47.264Z,2.80
2018-02-10T06:16:47.215Z,2.88
2018-02-10T06:17:47.164Z,2.91
2018-02-10T06:18:47.120Z,2.87
2018-02-10T06:19:47.069Z,2.91
2018-02-10T06:20:47.019Z,2.88
2018-02-10T06:21:46.972Z,2.90
2018-02-10T06:22:46.922Z,2.85
2018-02-10T06:23:46.876Z,2.95
2018-02-10T06:24:46.824Z,2.90
2018-02-10T06:25:46.773Z,2.88
2018-02-10T06:26:46.727Z,2.83
2018-02-10T06:27:46.677Z,2.91
2018-02-10T06:28:46.638Z,2.90
2018-02-10T06:29:46.580Z,2.95
2018-02-10T06:30:46.533Z,2.90
2018-02-10T06:31:46.487Z,2.97
2018-02-10T06:32:46.471Z,3.01
2018-02-10T06:33:46.397Z,2.95
2018-02-10T06:34:46.340Z,2.97
2018-02-10T06:35:46.305Z,2.95
2018-02-10T06:36:46.241Z,2.95
2018-02-10T06:37:46.199Z,3.00
2018-02-10T06:38:46.148Z,3.00
2018-02-10T06:39:46.096Z,2.98
2018-02-10T06:40:46.054Z,3.03
2018-02-10T06:41:45.997Z,2.97
2018-02-10T06:42:45.948Z,3.01
2018-02-10T06:43:45.901Z,3.01
2018-02-10T06:44:45.861Z,3.06
2018-02-10T06:45:45.850Z,2.98
2018-02-10T06:46:45.759Z,3.05
2018-02-10T06:47:45.707Z,3.12
2018-02-10T06:48:45.654Z,3.05
2018-02-10T06:49:45.610Z,3.09
2018-02-10T06:50:45.560Z,3.06
2018-02-10T06:51:45.512Z,3.13
2018-02-10T06:52:45.460Z,3.08
2018-02-10T06:53:45.441Z,3.05
2018-02-10T06:54:45.361Z,3.06
2018-02-10T06:55:45.315Z,3.11
2018-02-10T06:56:45.267Z,3.11
2018-02-10T06:57:45.218Z,3.12
2018-02-10T06:58:45.168Z,3.11
2018-02-10T06:59:45.121Z,3.09
2018-02-10T07:00:45.076Z,3.09
2018-02-10T07:01:45.024Z,3.16
2018-02-10T07:02:44.978Z,3.01
2018-02-10T07:03:44.924Z,3.08
2018-02-10T07:04:44.877Z,3.09
2018-02-10T07:05:44.829Z,3.06
2018-02-10T07:06:44.781Z,3.09
2018-02-10T07:07:44.729Z,3.13
2018-02-10T07:08:44.681Z,2.97
2018-02-10T07:09:44.631Z,3.03
2018-02-10T07:10:44.582Z,2.98
2018-02-10T07:11:44.548Z,3.05
2018-02-10T07:12:44.489Z,3.00
2018-02-10T07:13:44.439Z,3.12
2018-02-10T07:14:44.391Z,3.13
2018-02-10T07:15:44.339Z,3.03
2018-02-10T07:16:44.291Z,3.12
2018-02-10T07:17:44.241Z,3.13
2018-02-10T07:18:44.192Z,3.09
2018-02-10T07:19:44.146Z,3.19
2018-02-10T07:20:44.098Z,3.15
2018-02-10T07:21:44.048Z,3.11
2018-02-10T07:22:43.997Z,3.11
2018-02-10T07:23:43.951Z,3.11
2018-02-10T07:24:43.900Z,3.16
2018-02-10T07:25:43.852Z,3.16
2018-02-10T07:26:43.803Z,3.22
2018-02-10T07:27:43.756Z,3.22
2018-02-10T07:28:43.708Z,3.24
2018-02-10T07:29:43.658Z,3.27
2018-02-10T07:30:43.608Z,3.24
2018-02-10T07:31:43.563Z,3.19
2018-02-10T07:32:43.511Z,3.24
2018-02-10T07:33:43.472Z,3.26
2018-02-10T07:34:43.418Z,3.26
2018-02-10T07:35:43.365Z,3.29
2018-02-10T07:36:43.319Z,3.27
2018-02-10T07:37:43.269Z,3.30
2018-02-10T07:38:43.219Z,3.30
2018-02-10T07:39:43.175Z,3.29
2018-02-10T07:40:43.124Z,3.31
2018-02-10T07:41:43.079Z,3.26
2018-02-10T07:42:43.025Z,3.27
2018-02-10T07:43:42.977Z,3.30
2018-02-10T07:44:42.927Z,3.29
2018-02-10T07:45:42.882Z,3.21
2018-02-10T07:46:42.833Z,3.30
2018-02-10T07:47:42.783Z,3.21
2018-02-10T07:49:42.688Z,3.27
2018-02-10T07:50:42.642Z,3.18
2018-02-10T07:51:42.590Z,3.16
2018-02-10T07:52:42.541Z,3.12
2018-02-10T07:53:42.499Z,3.26
2018-02-10T07:54:42.441Z,3.22
2018-02-10T07:55:42.400Z,3.22
2018-02-10T07:56:42.358Z,3.12
2018-02-10T07:57:42.298Z,3.09
2018-02-10T07:58:42.247Z,3.11
2018-02-10T07:59:42.206Z,3.16
2018-02-10T08:00:42.159Z,3.11
2018-02-10T08:01:42.113Z,3.15
2018-02-10T08:02:42.057Z,3.08
2018-02-10T08:03:42.010Z,3.06
2018-02-10T08:04:41.961Z,3.09
2018-02-10T08:05:41.910Z,3.09
2018-02-10T08:06:41.857Z,3.09
2018-02-10T08:07:41.809Z,3.19
2018-02-10T08:08:41.762Z,3.11
2018-02-10T08:09:41.714Z,3.11
2018-02-10T08:10:41.662Z,3.09
2018-02-10T08:11:41.615Z,3.15
2018-02-10T08:12:41.566Z,3.03
2018-02-10T08:13:41.518Z,3.03
2018-02-10T08:14:41.470Z,3.12
2018-02-10T08:15:41.419Z,3.16
2018-02-10T08:16:41.374Z,3.09
2018-02-10T08:17:41.322Z,3.00
2018-02-10T08:18:41.283Z,3.13
2018-02-10T08:19:41.228Z,3.09
2018-02-10T08:20:41.176Z,3.09
2018-02-10T08:21:41.127Z,2.97
2018-02-10T08:22:41.080Z,3.01
2018-02-10T08:23:41.035Z,3.03
2018-02-10T08:24:40.981Z,3.01
2018-02-10T08:25:40.933Z,3.08
2018-02-10T08:26:40.883Z,3.01
2018-02-10T08:27:40.840Z,3.01
2018-02-10T08:28:40.790Z,2.94
2018-02-10T08:29:40.738Z,3.06
2018-02-10T08:30:40.689Z,3.01
2018-02-10T08:31:40.640Z,3.08
2018-02-10T08:32:40.593Z,2.98
2018-02-10T08:33:40.548Z,3.01
2018-02-10T08:34:40.495Z,3.00
2018-02-10T08:35:40.444Z,3.06
2018-02-10T08:36:40.400Z,3.01
2018-02-10T08:37:40.348Z,3.00
2018-02-10T08:38:40.306Z,2.98
2018-02-10T08:39:40.250Z,2.98
2018-02-10T08:40:40.209Z,2.95
2018-02-10T08:41:40.152Z,3.05
2018-02-10T08:42:40.106Z,3.12
2018-02-10T08:43:40.057Z,3.00
2018-02-10T08:44:40.009Z,3.11
2018-02-10T08:45:39.961Z,3.01
2018-02-10T08:46:39.915Z,3.05
2018-02-10T08:47:39.863Z,3.03
2018-02-10T08:48:39.815Z,3.03
2018-02-10T08:49:39.764Z,3.03
2018-02-10T08:50:39.723Z,3.03
2018-02-10T08:51:39.666Z,3.06
2018-02-10T08:52:39.619Z,3.01
2018-02-10T08:53:39.567Z,3.00
2018-02-10T08:54:39.519Z,3.00
2018-02-10T08:55:39.472Z,2.94
2018-02-10T08:56:39.423Z,2.97
2018-02-10T08:57:39.375Z,2.95
2018-02-10T08:58:39.331Z,2.97
2018-02-10T08:59:39.277Z,2.97
2018-02-10T09:00:39.229Z,2.97
2018-02-10T09:01:39.180Z,2.98
2018-02-10T09:02:39.131Z,2.97
2018-02-10T09:03:39.079Z,2.85
2018-02-10T09:04:39.033Z,2.85
2018-02-10T09:05:38.982Z,3.00
2018-02-10T09:06:38.937Z,2.88
2018-02-10T09:07:38.889Z,2.93
2018-02-10T09:08:38.840Z,2.95
2018-02-10T09:09:38.785Z,3.00
2018-02-10T09:10:38.739Z,2.98
2018-02-10T09:11:38.690Z,2.87
2018-02-10T09:12:38.643Z,2.88
2018-02-10T09:13:38.594Z,2.97
2018-02-10T09:14:38.542Z,3.01
2018-02-10T09:15:38.496Z,3.03
2018-02-10T09:16:38.467Z,2.94
2018-02-10T09:17:38.399Z,2.95
2018-02-10T09:18:38.349Z,3.00
2018-02-10T09:19:38.300Z,3.01
2018-02-10T09:20:38.252Z,3.03
2018-02-10T09:21:38.199Z,3.03
2018-02-10T09:22:38.154Z,3.06
2018-02-10T09:23:38.105Z,3.00
2018-02-10T09:24:38.056Z,2.98
2018-02-10T09:25:38.008Z,3.05
2018-02-10T09:26:37.956Z,3.15
2018-02-10T09:27:37.907Z,3.08
2018-02-10T09:28:37.861Z,3.06
2018-02-10T09:29:37.808Z,3.13
2018-02-10T09:30:37.761Z,3.13
2018-02-10T09:31:37.713Z,3.13
2018-02-10T09:32:37.665Z,3.12
2018-02-10T09:33:37.615Z,3.15
2018-02-10T09:34:37.569Z,3.29
2018-02-10T09:35:37.520Z,3.19
2018-02-10T09:36:37.473Z,3.26
2018-02-10T09:37:37.423Z,3.29
2018-02-10T09:38:37.371Z,3.30
2018-02-10T09:39:37.328Z,3.27
2018-02-10T09:40:37.347Z,3.27
2018-02-10T09:41:37.250Z,3.26
2018-02-10T09:42:37.254Z,3.27
2018-02-10T09:43:37.134Z,3.36
2018-02-10T09:44:37.087Z,3.37
2018-02-10T09:45:37.144Z,3.37
2018-02-10T09:46:37.011Z,3.46
2018-02-10T09:47:36.989Z,3.41
2018-02-10T09:48:36.902Z,3.45
2018-02-10T09:49:36.990Z,3.45
2018-02-10T09:50:36.812Z,3.36
2018-02-10T09:51:36.739Z,3.49
2018-02-10T09:52:36.693Z,3.50
2018-02-10T09:53:36.702Z,3.52
2018-02-10T09:54:36.655Z,3.48
2018-02-10T09:55:36.657Z,3.48
2018-02-10T09:56:36.497Z,3.49
2018-02-10T09:57:36.459Z,3.48
2018-02-10T09:58:36.424Z,3.55
2018-02-10T09:59:36.351Z,3.48
2018-02-10T10:00:36.304Z,3.45
2018-02-10T10:01:36.261Z,3.52
2018-02-10T10:02:36.210Z,3.48
2018-02-10T10:03:36.165Z,3.50
2018-02-10T10:04:36.114Z,3.45
2018-02-10T10:05:36.062Z,3.56
2018-02-10T10:06:36.014Z,3.49
2018-02-10T10:07:35.979Z,3.49
2018-02-10T10:08:35.962Z,3.52
2018-02-10T10:09:35.869Z,3.56
2018-02-10T10:10:35.820Z,3.55
2018-02-10T10:11:35.771Z,3.52
2018-02-10T10:12:35.729Z,3.52
2018-02-10T10:13:35.674Z,3.56
2018-02-10T10:14:35.626Z,3.55
2018-02-10T10:15:35.581Z,3.59
2018-02-10T10:16:35.531Z,3.50
2018-02-10T10:17:35.483Z,3.58
2018-02-10T10:18:35.433Z,3.64
2018-02-10T10:19:35.383Z,3.55
2018-02-10T10:20:35.338Z,3.61
2018-02-10T10:21:35.288Z,3.63
2018-02-10T10:22:35.241Z,3.53
2018-02-10T10:23:35.192Z,3.63
2018-02-10T10:24:35.145Z,3.52
2018-02-10T10:25:35.094Z,3.50
2018-02-10T10:26:35.045Z,3.63
2018-02-10T10:27:35.003Z,3.56
2018-02-10T10:28:34.952Z,3.56
2018-02-10T10:29:34.902Z,3.59
2018-02-10T10:30:34.855Z,3.64
2018-02-10T10:31:34.804Z,3.61
2018-02-10T10:32:34.758Z,3.63
2018-02-10T10:33:34.709Z,3.63
2018-02-10T10:34:34.664Z,3.66
2018-02-10T10:35:34.612Z,3.70
2018-02-10T10:36:34.563Z,3.66
2018-02-10T10:37:34.515Z,3.76
2018-02-10T10:38:34.467Z,3.77
2018-02-10T10:39:34.421Z,3.71
2018-02-10T10:40:34.428Z,3.71
2018-02-10T10:41:34.323Z,3.70
2018-02-10T10:42:34.272Z,3.76
2018-02-10T10:43:34.225Z,3.73
2018-02-10T10:44:34.179Z,3.73
2018-02-10T10:45:34.129Z,3.68
2018-02-10T10:46:34.081Z,3.81
2018-02-10T10:47:34.033Z,3.77
2018-02-10T10:48:33.984Z,3.78
2018-02-10T10:49:33.934Z,3.82
2018-02-10T10:50:33.887Z,3.77
2018-02-10T10:51:33.846Z,3.78
2018-02-10T10:52:33.797Z,3.82
2018-02-10T10:53:33.746Z,3.85
2018-02-10T10:54:33.698Z,3.94
2018-02-10T10:55:33.649Z,3.92
2018-02-10T10:56:33.602Z,3.84
2018-02-10T10:57:33.554Z,3.95
2018-02-10T10:58:33.503Z,3.88
2018-02-10T10:59:33.453Z,3.88
2018-02-10T11:00:33.409Z,3.92
2018-02-10T11:01:33.358Z,3.88
2018-02-10T11:02:33.312Z,3.89
2018-02-10T11:03:33.261Z,3.94
2018-02-10T11:04:33.215Z,3.91
2018-02-10T11:05:33.166Z,3.95
2018-02-10T11:06:33.119Z,4.02
2018-02-10T11:07:33.070Z,3.99
2018-02-10T11:08:33.029Z,4.02
2018-02-10T11:09:32.974Z,3.96
2018-02-10T11:10:32.932Z,4.04
2018-02-10T11:11:32.883Z,4.07
2018-02-10T11:12:32.833Z,3.92
2018-02-10T11:13:32.786Z,3.88
2018-02-10T11:14:32.736Z,3.99
2018-02-10T11:15:32.685Z,3.94
2018-02-10T11:16:32.638Z,3.88
2018-02-10T11:17:32.590Z,3.95
2018-02-10T11:18:32.545Z,3.96
2018-02-10T11:19:32.502Z,3.96
2018-02-10T11:20:32.446Z,3.86
2018-02-10T11:21:32.396Z,3.94
2018-02-10T11:22:32.361Z,3.92
2018-02-10T11:23:32.305Z,3.88
2018-02-10T11:24:32.256Z,3.94
2018-02-10T11:25:32.207Z,3.89
2018-02-10T11:26:32.156Z,3.84
2018-02-10T11:27:32.109Z,3.88
2018-02-10T11:28:32.060Z,3.91
2018-02-10T11:29:32.014Z,3.88
2018-02-10T11:30:31.963Z,3.88
2018-02-10T11:31:31.915Z,3.92
2018-02-10T11:32:31.866Z,3.84
2018-02-10T11:33:31.824Z,3.88
2018-02-10T11:34:31.773Z,3.86
2018-02-10T11:35:31.732Z,3.95
2018-02-10T11:36:31.674Z,3.94
2018-02-10T11:37:31.629Z,3.88
2018-02-10T11:38:31.578Z,3.89
2018-02-10T11:39:31.529Z,3.88
2018-02-10T11:40:31.490Z,3.89
2018-02-10T11:41:31.432Z,3.94
2018-02-10T11:42:31.389Z,3.92
2018-02-10T11:43:31.342Z,3.95
2018-02-10T11:44:31.289Z,3.95
2018-02-10T11:45:31.242Z,3.86
2018-02-10T11:46:31.192Z,3.94
2018-02-10T11:47:31.162Z,3.91
2018-02-10T11:48:31.096Z,4.06
2018-02-10T11:49:31.046Z,3.91
2018-02-10T11:50:30.998Z,4.06
2018-02-10T11:51:30.955Z,3.96
2018-02-10T11:52:30.906Z,4.02
2018-02-10T11:53:30.855Z,4.09
2018-02-10T11:54:30.808Z,4.10
2018-02-10T11:55:30.762Z,4.02
2018-02-10T11:56:30.711Z,4.12
2018-02-10T11:57:30.662Z,4.22
2018-02-10T11:58:30.615Z,4.06
2018-02-10T11:59:30.582Z,4.09
2018-02-10T12:00:30.520Z,4.13
2018-02-10T12:01:30.471Z,4.21
2018-02-10T12:02:30.422Z,4.27
2018-02-10T12:03:30.377Z,4.22
2018-02-10T12:04:30.328Z,4.18
2018-02-10T12:05:30.295Z,4.18
2018-02-10T12:06:30.229Z,4.28
2018-02-10T12:07:30.183Z,4.30
2018-02-10T12:08:30.132Z,4.24
2018-02-10T12:09:30.087Z,4.34
2018-02-10T12:10:30.041Z,4.31
2018-02-10T12:11:29.992Z,4.27
2018-02-10T12:12:29.943Z,4.30
2018-02-10T12:13:29.927Z,4.38
2018-02-10T12:14:29.850Z,4.32
2018-02-10T12:15:29.805Z,4.38
2018-02-10T12:16:29.753Z,4.39
2018-02-10T12:17:29.711Z,4.42
2018-02-10T12:18:29.653Z,4.43
2018-02-10T12:19:29.607Z,4.43
2018-02-10T12:20:29.567Z,4.42
2018-02-10T12:21:29.516Z,4.39
2018-02-10T12:22:29.465Z,4.43
2018-02-10T12:23:29.431Z,4.48
2018-02-10T12:24:29.370Z,4.50
2018-02-10T12:25:29.322Z,4.49
2018-02-10T12:26:29.276Z,4.53
2018-02-10T12:27:29.227Z,4.46
2018-02-10T12:28:29.178Z,4.52
2018-02-10T12:29:29.134Z,4.50
2018-02-10T12:30:29.084Z,4.50
2018-02-10T12:31:29.038Z,4.52
2018-02-10T12:32:28.990Z,4.53
2018-02-10T12:33:28.941Z,4.50
2018-02-10T12:34:28.910Z,4.48
2018-02-10T12:35:28.844Z,4.49
2018-02-10T12:36:28.805Z,4.46
2018-02-10T12:37:28.749Z,4.48
2018-02-10T12:38:28.708Z,4.48
2018-02-10T12:39:28.655Z,4.45
2018-02-10T12:40:28.607Z,4.48
2018-02-10T12:41:28.560Z,4.49
2018-02-10T12:42:28.509Z,4.52
2018-02-10T12:43:28.467Z,4.48
2018-02-10T12:44:28.421Z,4.45
2018-02-10T12:45:28.368Z,4.49
2018-02-10T12:46:28.320Z,4.48
2018-02-10T12:47:28.270Z,4.42
2018-02-10T12:48:28.245Z,4.40
2018-02-10T12:49:28.185Z,4.45
2018-02-10T12:50:28.132Z,4.42
2018-02-10T12:51:28.081Z,4.39
2018-02-10T12:52:28.034Z,4.42
2018-02-10T12:53:27.987Z,4.48
2018-02-10T12:54:27.939Z,4.39
2018-02-10T12:55:27.889Z,4.45
2018-02-10T12:56:27.845Z,4.46
2018-02-10T12:57:27.799Z,4.48
2018-02-10T12:58:27.748Z,4.43
2018-02-10T12:59:27.700Z,4.40
2018-02-10T13:00:27.649Z,4.45
2018-02-10T13:01:27.601Z,4.48
2018-02-10T13:02:27.557Z,4.49
2018-02-10T13:03:27.507Z,4.53
2018-02-10T13:04:27.460Z,4.60
2018-02-10T13:05:27.411Z,4.56
2018-02-10T13:06:27.364Z,4.63
2018-02-10T13:07:27.320Z,4.53
2018-02-10T13:08:27.271Z,4.60
2018-02-10T13:09:27.230Z,4.66
2018-02-10T13:10:27.177Z,4.68
2018-02-10T13:11:27.129Z,4.76
2018-02-10T13:12:27.085Z,4.67
2018-02-10T13:13:27.034Z,4.71
2018-02-10T13:14:26.982Z,4.70
2018-02-10T13:15:26.934Z,4.64
2018-02-10T13:16:26.887Z,4.66
2018-02-10T13:17:26.840Z,4.71
2018-02-10T13:18:26.792Z,4.64